createdAt,value
2024-01-05T00:01:08.240Z,9.08
2024-01-05T00:04:11.335Z,9.07
2024-01-05T00:07:14.170Z,9.15
2024-01-05T00:10:17.259Z,9.10
2024-01-05T00:13:22.130Z,9.01
2024-01-05T00:16:25.251Z,9.01
2024-01-05T00:19:28.083Z,9.00
2024-01-05T00:22:30.977Z,9.06
2024-01-05T00:25:33.585Z,9.15
2024-01-05T00:28:36.073Z,9.03
2024-01-05T00:31:38.706Z,8.98
2024-01-05T00:34:41.903Z,8.91
2024-01-05T00:37:44.523Z,8.90
2024-01-05T00:40:47.417Z,8.84
2024-01-05T00:43:49.937Z,8.78
2024-01-05T00:46:52.792Z,8.83
2024-01-05T00:49:55.310Z,8.78
2024-01-05T00:52:58.256Z,8.76
2024-01-05T00:56:00.776Z,8.80
2024-01-05T00:59:03.712Z,8.78
2024-01-05T01:02:06.128Z,8.78
2024-01-05T01:05:09.411Z,8.82
2024-01-05T01:08:13.882Z,8.84
2024-01-05T01:11:17.147Z,8.74
2024-01-05T01:14:19.559Z,8.74
2024-01-05T01:17:23.488Z,8.74
2024-01-05T01:20:26.011Z,8.71
2024-01-05T01:23:28.633Z,8.66
2024-01-05T01:26:30.910Z,8.60
2024-01-05T01:29:33.655Z,8.58
2024-01-05T01:32:38.269Z,8.64
2024-01-05T01:35:41.528Z,8.63
2024-01-05T01:38:43.846Z,8.60
2024-01-05T01:41:46.607Z,8.62
2024-01-05T01:44:49.206Z,8.58
2024-01-05T01:47:53.024Z,8.52
2024-01-05T01:50:56.661Z,8.48
2024-01-05T01:54:00.257Z,8.43
2024-01-05T01:57:03.911Z,8.40
2024-01-05T02:00:07.279Z,8.39
2024-01-05T02:03:10.630Z,8.30
2024-01-05T02:06:14.538Z,8.24
2024-01-05T02:09:17.140Z,8.24
2024-01-05T02:12:20.147Z,8.27
2024-01-05T02:15:22.665Z,8.27
2024-01-05T02:18:25.636Z,8.21
2024-01-05T02:21:30.985Z,8.07
2024-01-05T02:24:33.975Z,8.08
2024-01-05T02:27:36.961Z,8.05
2024-01-05T02:30:39.857Z,7.87
2024-01-05T02:33:42.327Z,7.71
2024-01-05T02:36:45.823Z,7.52
2024-01-05T02:39:48.557Z,7.55
2024-01-05T02:42:51.400Z,7.47
2024-01-05T02:45:53.996Z,7.35
2024-01-05T02:48:56.796Z,7.49
2024-01-05T02:51:59.410Z,7.40
2024-01-05T02:55:02.557Z,7.37
2024-01-05T02:58:05.273Z,7.28
2024-01-05T03:01:08.153Z,7.21
2024-01-05T03:04:12.544Z,7.14
2024-01-05T03:07:15.520Z,7.27
2024-01-05T03:10:18.043Z,7.21
2024-01-05T03:13:20.878Z,7.07
2024-01-05T03:16:23.482Z,7.07
2024-01-05T03:19:26.341Z,7.09
2024-01-05T03:22:31.278Z,7.07
2024-01-05T03:25:35.097Z,7.10
2024-01-05T03:28:39.134Z,7.09
2024-01-05T03:31:44.887Z,7.02
2024-01-05T03:34:47.401Z,6.84
2024-01-05T03:37:50.968Z,6.91
2024-01-05T03:40:53.312Z,6.85
2024-01-05T03:43:56.279Z,6.84
2024-01-05T03:46:58.551Z,6.79
2024-01-05T03:50:01.311Z,6.65
2024-01-05T03:53:04.071Z,6.57
2024-01-05T03:56:06.853Z,6.54
2024-01-05T03:59:09.751Z,6.55
2024-01-05T04:02:12.804Z,6.50
2024-01-05T04:05:15.773Z,6.42
2024-01-05T04:08:18.202Z,6.21
2024-01-05T04:11:21.822Z,5.96
2024-01-05T04:14:24.559Z,5.76
2024-01-05T04:17:27.491Z,5.57
2024-01-05T04:20:30.117Z,5.36
2024-01-05T04:23:32.942Z,5.23
2024-01-05T04:26:35.520Z,5.11
2024-01-05T04:29:39.928Z,4.95
2024-01-05T04:32:43.196Z,4.82
2024-01-05T04:35:47.460Z,4.70
2024-01-05T04:38:50.034Z,4.62
2024-01-05T04:41:52.835Z,4.56
2024-01-05T04:44:55.262Z,4.55
2024-01-05T04:47:57.987Z,4.47
2024-01-05T04:51:01.380Z,4.47
2024-01-05T04:54:04.870Z,4.56
2024-01-05T04:57:07.567Z,4.59
2024-01-05T05:00:10.600Z,4.58
2024-01-05T05:03:16.583Z,4.53
2024-01-05T05:06:19.574Z,4.54
2024-01-05T05:09:22.152Z,4.46
2024-01-05T05:12:25.007Z,4.39
2024-01-05T05:15:27.353Z,4.34
2024-01-05T05:18:30.359Z,4.30
2024-01-05T05:21:33.182Z,4.24
2024-01-05T05:24:36.494Z,4.32
2024-01-05T05:27:39.190Z,4.35
2024-01-05T05:30:42.119Z,4.32
2024-01-05T05:33:44.677Z,4.23
2024-01-05T05:36:47.637Z,4.14
2024-01-05T05:39:50.324Z,4.06
2024-01-05T05:42:53.212Z,3.96
2024-01-05T05:45:56.586Z,3.97
2024-01-05T05:48:59.738Z,4.08
2024-01-05T05:52:02.432Z,4.25
2024-01-05T05:55:06.662Z,4.37
2024-01-05T05:58:09.233Z,4.47
2024-01-05T06:01:14.370Z,4.51
2024-01-05T06:04:18.109Z,4.60
2024-01-05T06:07:20.768Z,4.54
2024-01-05T06:10:23.658Z,4.64
2024-01-05T06:13:26.218Z,4.78
2024-01-05T06:16:28.830Z,4.83
2024-01-05T06:19:31.463Z,4.89
2024-01-05T06:22:34.465Z,4.88
2024-01-05T06:25:37.080Z,4.84
2024-01-05T06:28:39.696Z,4.89
2024-01-05T06:31:42.643Z,4.79
2024-01-05T06:34:45.832Z,4.70
2024-01-05T06:37:48.654Z,4.60
2024-01-05T06:40:51.494Z,4.50
2024-01-05T06:43:54.067Z,4.40
2024-01-05T06:46:57.013Z,4.30
2024-01-05T06:49:59.516Z,4.21
2024-01-05T06:53:02.180Z,4.28
2024-01-05T06:56:05.994Z,4.32
2024-01-05T06:59:09.292Z,4.36
2024-01-05T07:02:12.188Z,4.38
2024-01-05T07:05:15.211Z,4.51
2024-01-05T07:08:17.796Z,4.53
2024-01-05T07:11:22.131Z,4.52
2024-01-05T07:14:24.490Z,4.54
2024-01-05T07:17:27.509Z,4.52
2024-01-05T07:20:29.842Z,4.51
2024-01-05T07:23:32.755Z,4.54
2024-01-05T07:26:35.084Z,4.54
2024-01-05T07:29:37.752Z,4.50
2024-01-05T07:32:40.161Z,4.46
2024-01-05T07:35:42.799Z,4.45
2024-01-05T07:38:45.060Z,4.48
2024-01-05T07:41:48.244Z,4.56
2024-01-05T07:44:52.809Z,4.65
2024-01-05T07:47:59.522Z,4.83
2024-01-05T07:51:05.342Z,5.05
2024-01-05T07:54:08.186Z,5.45
2024-01-05T07:57:10.873Z,6.64
2024-01-05T08:00:13.761Z,7.80
2024-01-05T08:03:16.378Z,8.51
2024-01-05T08:06:19.434Z,8.20
2024-01-05T08:09:22.549Z,8.09
2024-01-05T08:12:24.990Z,7.93
2024-01-05T08:15:29.245Z,7.76
2024-01-05T08:18:31.892Z,7.50
2024-01-05T08:21:34.577Z,7.22
2024-01-05T08:24:38.763Z,6.90
2024-01-05T08:27:41.805Z,6.93
2024-01-05T08:30:45.289Z,6.97
2024-01-05T08:33:48.246Z,7.03
2024-01-05T08:36:51.067Z,7.05
2024-01-05T08:39:54.105Z,7.23
2024-01-05T08:42:56.928Z,7.30
2024-01-05T08:46:00.056Z,7.39
2024-01-05T08:49:02.613Z,7.56
2024-01-05T08:52:05.704Z,7.67
2024-01-05T08:55:09.038Z,7.82
2024-01-05T08:58:11.874Z,7.97
2024-01-05T09:01:14.290Z,8.07
2024-01-05T09:04:17.267Z,8.09
2024-01-05T09:07:20.577Z,8.30
2024-01-05T09:10:23.221Z,8.29
2024-01-05T09:13:25.504Z,8.43
2024-01-05T09:16:28.371Z,8.59
2024-01-05T09:19:31.114Z,8.70
2024-01-05T09:22:33.771Z,8.72
2024-01-05T09:25:38.627Z,8.82
2024-01-05T09:28:43.573Z,8.76
2024-01-05T09:31:47.626Z,8.74
2024-01-05T09:34:50.747Z,8.77
2024-01-05T09:37:53.528Z,8.83
2024-01-05T09:40:56.725Z,8.82
2024-01-05T09:44:01.038Z,8.88
2024-01-05T09:47:03.904Z,8.97
2024-01-05T09:50:06.865Z,9.06
2024-01-05T09:53:13.052Z,9.10
2024-01-05T09:56:16.516Z,9.09
2024-01-05T09:59:20.591Z,9.20
2024-01-05T10:02:28.109Z,9.34
2024-01-05T10:05:31.600Z,9.36
2024-01-05T10:08:34.271Z,9.50
2024-01-05T10:11:38.377Z,9.55
2024-01-05T10:14:40.891Z,9.70
2024-01-05T10:17:43.701Z,9.74
2024-01-05T10:20:46.409Z,9.53
2024-01-05T10:23:49.117Z,9.63
2024-01-05T10:27:17.981Z,9.76
2024-01-05T10:30:25.990Z,9.83
2024-01-05T10:33:28.638Z,9.82
2024-01-05T10:36:31.628Z,9.91
2024-01-05T10:39:34.245Z,9.91
2024-01-05T10:42:36.891Z,10.05
2024-01-05T10:45:40.601Z,10.12
2024-01-05T10:48:44.096Z,10.13
2024-01-05T10:51:46.996Z,10.15
2024-01-05T10:54:51.388Z,10.33
2024-01-05T10:57:55.012Z,10.54
2024-01-05T11:01:01.010Z,10.41
2024-01-05T11:04:04.556Z,10.41
2024-01-05T11:07:08.147Z,10.36
2024-01-05T11:10:29.682Z,10.56
2024-01-05T11:13:41.881Z,10.52
2024-01-05T11:16:44.222Z,10.61
2024-01-05T11:19:47.022Z,10.66
2024-01-05T11:22:50.813Z,10.76
2024-01-05T11:25:55.578Z,10.77
2024-01-05T11:28:58.238Z,10.70
2024-01-05T11:32:01.158Z,10.63
2024-01-05T11:35:04.243Z,10.56
2024-01-05T11:38:26.109Z,10.71
2024-01-05T11:41:32.901Z,10.76
2024-01-05T11:44:36.018Z,10.71
2024-01-05T11:47:38.382Z,10.55
2024-01-05T11:50:41.148Z,10.47
2024-01-05T11:53:45.076Z,10.40
2024-01-05T11:56:48.173Z,10.36
2024-01-05T11:59:56.908Z,10.32
2024-01-05T12:03:03.983Z,10.38
2024-01-05T12:06:07.980Z,10.55
2024-01-05T12:09:10.547Z,10.48
2024-01-05T12:12:17.676Z,10.63
2024-01-05T12:15:22.908Z,10.85
2024-01-05T12:18:34.945Z,10.84
2024-01-05T12:21:40.777Z,10.94
2024-01-05T12:24:45.828Z,10.90
2024-01-05T12:27:49.113Z,10.96
2024-01-05T12:30:52.185Z,10.91
2024-01-05T12:33:54.925Z,10.93
2024-01-05T12:37:08.543Z,10.99
2024-01-05T12:40:12.085Z,10.84
2024-01-05T12:43:17.344Z,10.88
2024-01-05T12:46:20.651Z,11.00
2024-01-05T12:49:25.583Z,10.86
2024-01-05T12:52:36.513Z,10.87
2024-01-05T12:55:39.425Z,10.91
2024-01-05T12:58:42.605Z,10.98
2024-01-05T13:01:45.498Z,10.77
2024-01-05T13:04:48.450Z,10.81
2024-01-05T13:07:51.066Z,10.79
2024-01-05T13:10:53.540Z,10.78
2024-01-05T13:13:56.761Z,10.73
2024-01-05T13:16:59.273Z,10.78
2024-01-05T13:20:02.125Z,10.66
2024-01-05T13:23:05.720Z,10.71
2024-01-05T13:26:08.341Z,10.60
2024-01-05T13:29:10.766Z,10.40
2024-01-05T13:32:13.400Z,10.47
2024-01-05T13:35:16.128Z,10.41
2024-01-05T13:38:19.764Z,10.38
2024-01-05T13:41:22.416Z,10.20
2024-01-05T13:44:27.033Z,10.14
2024-01-05T13:47:29.429Z,10.07
2024-01-05T13:50:32.068Z,9.97
2024-01-05T13:53:34.394Z,9.99
2024-01-05T13:56:37.311Z,9.81
2024-01-05T13:59:39.946Z,9.91
2024-01-05T14:02:43.302Z,9.81
2024-01-05T14:05:46.092Z,9.63
2024-01-05T14:08:48.681Z,9.77
2024-01-05T14:11:51.703Z,9.69
2024-01-05T14:14:54.039Z,9.54
2024-01-05T14:17:56.858Z,9.47
2024-01-05T14:21:00.457Z,9.43
2024-01-05T14:24:03.363Z,9.32
2024-01-05T14:27:06.352Z,9.42
2024-01-05T14:30:09.705Z,9.21
2024-01-05T14:33:12.828Z,9.12
2024-01-05T14:36:16.742Z,9.07
2024-01-05T14:39:19.869Z,9.07
2024-01-05T14:42:22.796Z,8.98
2024-01-05T14:45:25.600Z,9.05
2024-01-05T14:48:29.544Z,8.99
2024-01-05T14:51:32.496Z,8.94
2024-01-05T14:54:35.113Z,8.79
2024-01-05T14:57:37.621Z,8.85
2024-01-05T15:00:40.560Z,8.84
2024-01-05T15:03:43.354Z,8.74
2024-01-05T15:06:46.142Z,8.64
2024-01-05T15:09:48.480Z,8.55
2024-01-05T15:12:51.584Z,8.47
2024-01-05T15:15:54.589Z,8.40
2024-01-05T15:18:57.660Z,8.35
2024-01-05T15:22:00.158Z,8.22
2024-01-05T15:25:03.213Z,8.16
2024-01-05T15:28:05.748Z,8.09
2024-01-05T15:31:16.511Z,8.12
2024-01-05T15:34:19.088Z,8.06
2024-01-05T15:37:21.784Z,8.00
2024-01-05T15:40:30.934Z,7.94
2024-01-05T15:43:36.724Z,7.85
2024-01-05T15:46:39.104Z,7.79
2024-01-05T15:49:42.057Z,7.73
2024-01-05T15:52:44.533Z,7.73
2024-01-05T15:55:55.085Z,7.68
2024-01-05T15:59:00.898Z,7.64
2024-01-05T16:02:04.509Z,7.58
2024-01-05T16:05:07.580Z,7.56
2024-01-05T16:08:10.240Z,7.50
2024-01-05T16:11:12.863Z,7.48
2024-01-05T16:14:15.328Z,7.43
2024-01-05T16:17:17.914Z,7.41
2024-01-05T16:20:20.488Z,7.38
2024-01-05T16:23:23.367Z,7.35
2024-01-05T16:26:26.420Z,7.39
2024-01-05T16:29:29.005Z,7.43
2024-01-05T16:32:31.588Z,7.50
2024-01-05T16:35:34.554Z,7.65
2024-01-05T16:38:37.513Z,7.92
2024-01-05T16:41:40.258Z,7.94
2024-01-05T16:44:44.319Z,7.88
2024-01-05T16:47:47.064Z,7.85
2024-01-05T16:50:49.397Z,7.82
2024-01-05T16:53:52.330Z,7.79
2024-01-05T16:56:55.159Z,7.72
2024-01-05T16:59:57.761Z,7.64
2024-01-05T17:03:04.430Z,7.59
2024-01-05T17:06:18.892Z,7.71
2024-01-05T17:09:23.017Z,7.70
2024-01-05T17:12:26.001Z,7.62
2024-01-05T17:15:28.541Z,7.60
2024-01-05T17:18:31.429Z,7.58
2024-01-05T17:21:34.063Z,7.69
2024-01-05T17:24:38.200Z,7.72
2024-01-05T17:27:40.644Z,7.72
2024-01-05T17:30:44.299Z,7.66
2024-01-05T17:33:46.992Z,7.57
2024-01-05T17:36:49.628Z,7.42
2024-01-05T17:39:52.069Z,7.25
2024-01-05T17:42:54.691Z,7.16
2024-01-05T17:45:57.101Z,7.10
2024-01-05T17:49:00.035Z,7.10
2024-01-05T17:52:02.777Z,6.97
2024-01-05T17:55:05.700Z,6.88
2024-01-05T17:58:08.322Z,6.77
2024-01-05T18:01:13.291Z,6.67
2024-01-05T18:04:16.830Z,6.62
2024-01-05T18:07:19.400Z,6.56
2024-01-05T18:10:23.751Z,6.51
2024-01-05T18:13:26.104Z,6.48
2024-01-05T18:16:30.023Z,6.48
2024-01-05T18:19:32.674Z,6.40
2024-01-05T18:22:35.608Z,6.40
2024-01-05T18:25:38.115Z,6.37
2024-01-05T18:28:40.718Z,6.36
2024-01-05T18:31:43.218Z,6.27
2024-01-05T18:34:47.987Z,6.20
2024-01-05T18:37:50.406Z,6.14
2024-01-05T18:40:53.061Z,6.12
2024-01-05T18:43:55.395Z,6.07
2024-01-05T18:47:01.127Z,6.05
2024-01-05T18:50:04.346Z,6.05
2024-01-05T18:53:07.113Z,6.09
2024-01-05T18:56:10.107Z,6.07
2024-01-05T18:59:12.706Z,6.03
2024-01-05T19:02:15.060Z,6.03
2024-01-05T19:05:17.693Z,6.05
2024-01-05T19:08:20.536Z,6.13
2024-01-05T19:11:23.434Z,6.22
2024-01-05T19:14:25.793Z,6.26
2024-01-05T19:17:28.472Z,6.36
2024-01-05T19:20:32.865Z,6.44
2024-01-05T19:23:35.697Z,6.49
2024-01-05T19:26:38.234Z,6.63
2024-01-05T19:29:42.929Z,6.77
2024-01-05T19:32:46.085Z,6.89
2024-01-05T19:35:48.729Z,6.98
2024-01-05T19:38:51.103Z,7.00
2024-01-05T19:41:54.243Z,7.20
2024-01-05T19:44:58.070Z,7.22
2024-01-05T19:48:01.208Z,7.29
2024-01-05T19:51:04.788Z,7.31
2024-01-05T19:54:07.794Z,7.27
2024-01-05T19:57:10.355Z,7.16
2024-01-05T20:00:14.342Z,7.09
2024-01-05T20:03:17.186Z,6.97
2024-01-05T20:06:20.467Z,6.88
2024-01-05T20:09:23.933Z,6.79
2024-01-05T20:12:26.413Z,6.72
2024-01-05T20:15:30.709Z,6.62
2024-01-05T20:18:34.051Z,6.51
2024-01-05T20:21:36.758Z,6.44
2024-01-05T20:24:39.392Z,6.39
2024-01-05T20:27:42.642Z,6.35
2024-01-05T20:30:47.583Z,6.27
2024-01-05T20:33:53.689Z,6.14
2024-01-05T20:36:56.522Z,5.98
2024-01-05T20:39:59.292Z,5.87
2024-01-05T20:43:01.768Z,5.67
2024-01-05T20:46:04.505Z,5.51
2024-01-05T20:49:07.522Z,5.39
2024-01-05T20:52:11.074Z,5.31
2024-01-05T20:55:13.455Z,5.20
2024-01-05T20:58:16.054Z,5.10
2024-01-05T21:01:19.626Z,5.10
2024-01-05T21:04:23.317Z,5.11
2024-01-05T21:07:26.112Z,5.08
2024-01-05T21:10:28.762Z,5.11
2024-01-05T21:13:31.061Z,5.11
2024-01-05T21:16:35.486Z,5.09
2024-01-05T21:19:38.644Z,5.06
2024-01-05T21:22:41.905Z,5.09
2024-01-05T21:25:44.484Z,5.07
2024-01-05T21:28:47.091Z,5.16
2024-01-05T21:31:51.105Z,5.19
2024-01-05T21:34:56.319Z,5.26
2024-01-05T21:37:58.867Z,5.27
2024-01-05T21:41:01.622Z,5.28
2024-01-05T21:44:04.418Z,5.32
2024-01-05T21:47:07.129Z,5.32
2024-01-05T21:50:10.951Z,5.33
2024-01-05T21:53:14.223Z,5.34
2024-01-05T21:56:16.539Z,5.38
2024-01-05T21:59:19.129Z,5.39
2024-01-05T22:02:21.474Z,5.46
2024-01-05T22:05:24.266Z,5.46
2024-01-05T22:08:27.053Z,5.50
2024-01-05T22:11:31.013Z,5.58
2024-01-05T22:14:33.608Z,5.74
2024-01-05T22:17:36.479Z,5.75
2024-01-05T22:20:43.169Z,5.73
2024-01-05T22:23:47.077Z,5.72
2024-01-05T22:26:49.464Z,5.75
2024-01-05T22:29:52.205Z,5.76
2024-01-05T22:32:54.879Z,5.73
2024-01-05T22:36:01.759Z,5.67
2024-01-05T22:39:06.818Z,5.71
2024-01-05T22:42:11.757Z,5.67
2024-01-05T22:45:14.318Z,5.59
2024-01-05T22:48:17.210Z,5.54
2024-01-05T22:51:23.789Z,5.53
2024-01-05T22:54:26.538Z,5.37
2024-01-05T22:57:28.962Z,5.47
2024-01-05T23:00:34.840Z,5.36
2024-01-05T23:03:37.808Z,5.23
2024-01-05T23:06:40.561Z,5.24
2024-01-05T23:09:43.566Z,5.27
2024-01-05T23:12:46.601Z,5.03
2024-01-05T23:15:49.498Z,4.91
2024-01-05T23:18:53.263Z,4.94
2024-01-05T23:21:56.130Z,4.85
2024-01-05T23:24:59.084Z,4.78
2024-01-05T23:28:01.800Z,4.89
2024-01-05T23:31:04.666Z,4.93
2024-01-05T23:34:15.975Z,4.93
2024-01-05T23:37:20.143Z,4.88
2024-01-05T23:40:22.476Z,4.89
2024-01-05T23:43:25.110Z,4.91
2024-01-05T23:46:27.536Z,5.00
2024-01-05T23:49:30.575Z,5.09
2024-01-05T23:52:36.456Z,5.06
2024-01-05T23:55:39.367Z,5.07
2024-01-05T23:58:41.945Z,5.11
